createdAt,value
2023-12-03T00:07:51.311Z,8.73
2023-12-03T00:31:56.083Z,9.23
2023-12-03T01:12:15.102Z,7.73
2023-12-03T01:35:38.148Z,7.53
2023-12-03T01:46:47.149Z,9.70
2023-12-03T01:59:24.596Z,8.03
2023-12-03T02:10:14.864Z,8.57
2023-12-03T02:12:53.853Z,8.20
2023-12-03T02:16:06.284Z,7.60
2023-12-03T02:22:27.041Z,7.53
2023-12-03T02:28:14.670Z,7.50
2023-12-03T02:30:51.886Z,7.70
2023-12-03T02:36:15.178Z,7.73
2023-12-03T02:39:00.615Z,7.57
2023-12-03T02:41:39.659Z,7.40
2023-12-03T02:44:40.099Z,7.43
2023-12-03T02:47:10.579Z,7.70
2023-12-03T02:49:45.704Z,7.30
2023-12-03T02:55:12.867Z,7.40
2023-12-03T02:57:52.522Z,7.17
2023-12-03T03:00:51.806Z,6.90
2023-12-03T03:06:09.588Z,7.10
2023-12-03T03:08:45.804Z,6.80
2023-12-03T03:11:36.309Z,7.87
2023-12-03T03:14:18.353Z,6.77
2023-12-03T03:16:48.688Z,7.63
2023-12-03T03:19:36.192Z,7.70
2023-12-03T03:22:06.259Z,7.30
2023-12-03T03:24:33.468Z,7.40
2023-12-03T03:27:00.477Z,6.93
2023-12-03T03:29:33.000Z,6.70
2023-12-03T03:32:00.056Z,6.47
2023-12-03T03:34:30.201Z,6.80
2023-12-03T03:37:17.136Z,7.40
2023-12-03T03:39:44.283Z,7.17
2023-12-03T03:42:16.139Z,7.93
2023-12-03T03:44:45.963Z,7.30
2023-12-03T03:47:17.451Z,6.97
2023-12-03T03:49:47.327Z,6.93
2023-12-03T03:52:20.333Z,7.17
2023-12-03T03:54:55.845Z,6.40
2023-12-03T03:57:22.966Z,7.23
2023-12-03T03:59:49.921Z,6.93
2023-12-03T04:02:20.228Z,7.20
2023-12-03T04:04:52.969Z,7.63
2023-12-03T04:07:25.153Z,8.00
2023-12-03T04:09:52.785Z,7.80
2023-12-03T04:12:20.030Z,7.30
2023-12-03T04:14:47.472Z,6.93
2023-12-03T04:17:14.971Z,6.70
2023-12-03T04:19:42.208Z,9.90
2023-12-03T04:22:12.149Z,10.90
2023-12-03T04:24:39.275Z,9.03
2023-12-03T04:27:06.455Z,8.90
2023-12-03T04:29:33.342Z,7.43
2023-12-03T04:32:00.638Z,8.43
2023-12-03T04:34:27.632Z,7.97
2023-12-03T04:36:54.737Z,6.77
2023-12-03T04:39:21.576Z,7.70
2023-12-03T04:41:48.563Z,8.10
2023-12-03T04:44:15.711Z,7.93
2023-12-03T04:46:42.778Z,7.73
2023-12-03T04:49:10.141Z,6.90
2023-12-03T04:51:37.064Z,7.97
2023-12-03T04:54:10.085Z,7.80
2023-12-03T04:56:37.479Z,9.97
2023-12-03T04:59:06.031Z,10.40
2023-12-03T05:01:40.550Z,9.23
2023-12-03T05:04:07.451Z,7.60
2023-12-03T05:06:35.451Z,7.63
2023-12-03T05:09:02.584Z,7.93
2023-12-03T05:11:29.686Z,7.93
2023-12-03T05:13:56.576Z,7.63
2023-12-03T05:16:23.493Z,8.07
2023-12-03T05:18:50.409Z,7.30
2023-12-03T05:21:17.271Z,7.60
2023-12-03T05:23:44.132Z,14.27
2023-12-03T05:26:11.795Z,13.43
2023-12-03T05:28:38.922Z,8.17
2023-12-03T05:31:06.441Z,7.37
2023-12-03T05:33:33.345Z,7.97
2023-12-03T05:36:00.285Z,7.10
2023-12-03T05:38:27.038Z,6.73
2023-12-03T05:40:53.964Z,7.10
2023-12-03T05:43:20.806Z,6.30
2023-12-03T05:45:47.811Z,6.87
2023-12-03T05:48:14.901Z,7.00
2023-12-03T05:50:41.807Z,7.17
2023-12-03T05:53:08.706Z,7.27
2023-12-03T05:55:35.540Z,6.77
2023-12-03T05:58:02.741Z,6.83
2023-12-03T06:00:31.051Z,7.37
2023-12-03T06:03:00.655Z,7.43
2023-12-03T06:05:27.581Z,7.03
2023-12-03T06:07:54.395Z,6.50
2023-12-03T06:10:21.296Z,7.17
2023-12-03T06:12:48.140Z,7.93
2023-12-03T06:15:15.111Z,7.43
2023-12-03T06:17:41.966Z,9.47
2023-12-03T06:20:09.505Z,8.87
2023-12-03T06:22:37.198Z,9.50
2023-12-03T06:25:04.677Z,10.00
2023-12-03T06:27:31.796Z,8.70
2023-12-03T06:29:58.720Z,8.67
2023-12-03T06:32:25.663Z,7.80
2023-12-03T06:34:52.908Z,8.00
2023-12-03T06:37:19.749Z,8.50
2023-12-03T06:39:46.523Z,11.50
2023-12-03T06:42:13.669Z,15.23
2023-12-03T06:44:44.738Z,19.97
2023-12-03T06:47:12.252Z,11.83
2023-12-03T06:49:39.248Z,9.17
2023-12-03T06:52:06.292Z,8.50
2023-12-03T06:54:33.273Z,11.23
2023-12-03T06:57:00.093Z,10.97
2023-12-03T06:59:27.210Z,10.63
2023-12-03T07:01:54.417Z,10.60
2023-12-03T07:04:21.313Z,8.93
2023-12-03T07:06:48.181Z,8.07
2023-12-03T07:09:36.827Z,8.33
2023-12-03T07:12:02.764Z,8.23
2023-12-03T07:14:29.537Z,8.20
2023-12-03T07:16:57.229Z,7.70
2023-12-03T07:19:24.037Z,8.60
2023-12-03T07:21:50.946Z,8.20
2023-12-03T07:24:18.252Z,10.73
2023-12-03T07:26:45.648Z,10.30
2023-12-03T07:29:12.580Z,8.47
2023-12-03T07:31:39.462Z,9.03
2023-12-03T07:34:06.317Z,11.50
2023-12-03T07:36:33.921Z,14.33
2023-12-03T07:39:00.890Z,24.67
2023-12-03T07:41:27.927Z,15.73
2023-12-03T07:43:57.584Z,8.23
2023-12-03T07:46:24.944Z,7.10
2023-12-03T07:48:51.858Z,9.73
2023-12-03T07:51:19.002Z,10.97
2023-12-03T07:53:47.574Z,10.10
2023-12-03T07:56:17.896Z,8.00
2023-12-03T07:58:45.916Z,11.07
2023-12-03T08:01:14.329Z,12.43
2023-12-03T08:03:43.242Z,8.73
2023-12-03T08:06:10.982Z,8.63
2023-12-03T08:08:41.207Z,9.03
2023-12-03T08:11:09.123Z,9.23
2023-12-03T08:13:43.263Z,12.50
2023-12-03T08:16:14.249Z,13.17
2023-12-03T08:18:41.360Z,11.60
2023-12-03T08:21:08.633Z,10.47
2023-12-03T08:23:35.772Z,11.60
2023-12-03T08:26:04.855Z,11.57
2023-12-03T08:28:39.348Z,9.97
2023-12-03T08:31:06.866Z,11.07
2023-12-03T08:36:24.083Z,9.37
2023-12-03T08:39:13.840Z,10.30
2023-12-03T08:45:30.416Z,8.47
2023-12-03T08:52:34.415Z,11.40
2023-12-03T08:55:03.994Z,9.67
2023-12-03T08:57:31.068Z,9.87
2023-12-03T09:00:02.510Z,10.17
2023-12-03T09:02:29.574Z,9.80
2023-12-03T09:04:56.352Z,10.13
2023-12-03T09:07:23.241Z,9.37
2023-12-03T09:09:50.435Z,8.33
2023-12-03T09:12:26.562Z,9.77
2023-12-03T09:14:57.342Z,11.30
2023-12-03T09:17:24.720Z,11.40
2023-12-03T09:19:51.901Z,10.97
2023-12-03T09:22:19.809Z,11.00
2023-12-03T09:24:46.809Z,11.33
2023-12-03T09:27:13.792Z,10.50
2023-12-03T09:29:43.547Z,10.47
2023-12-03T09:32:10.453Z,8.97
2023-12-03T09:34:37.424Z,9.07
2023-12-03T09:37:10.089Z,9.13
2023-12-03T09:39:45.711Z,8.23
2023-12-03T09:42:17.493Z,8.77
2023-12-03T09:45:25.900Z,8.27
2023-12-03T09:48:06.807Z,8.07
2023-12-03T09:54:54.040Z,8.37
2023-12-03T09:58:01.640Z,8.53
2023-12-03T10:04:44.853Z,9.67
2023-12-03T10:07:25.755Z,11.27
2023-12-03T10:35:38.095Z,11.53
2023-12-03T10:38:43.633Z,9.97
2023-12-03T10:41:28.885Z,10.50
2023-12-03T10:44:01.567Z,9.93
2023-12-03T10:46:37.128Z,10.73
2023-12-03T10:49:16.155Z,10.53
2023-12-03T10:51:56.918Z,11.10
2023-12-03T10:54:42.297Z,11.90
2023-12-03T10:57:20.336Z,11.87
2023-12-03T11:00:05.087Z,11.87
2023-12-03T11:06:57.595Z,11.77
2023-12-03T11:12:39.819Z,12.07
2023-12-03T11:18:21.832Z,12.23
2023-12-03T11:21:23.973Z,13.30
2023-12-03T11:27:56.025Z,13.50
2023-12-03T11:31:42.036Z,12.00
2023-12-03T11:34:41.554Z,12.33
2023-12-03T11:37:34.874Z,12.23
2023-12-03T11:43:50.973Z,11.97
2023-12-03T11:56:58.696Z,11.17
2023-12-03T11:59:41.952Z,11.77
2023-12-03T12:10:25.174Z,10.33
2023-12-03T12:17:57.469Z,11.03
2023-12-03T12:21:24.725Z,12.10
2023-12-03T12:30:58.825Z,10.70
2023-12-03T12:33:33.417Z,11.33
2023-12-03T12:36:53.790Z,11.10
2023-12-03T12:43:17.271Z,11.00
2023-12-03T12:45:55.863Z,10.13
2023-12-03T12:48:35.255Z,10.53
2023-12-03T12:51:48.710Z,9.77
2023-12-03T12:54:21.694Z,10.93
2023-12-03T12:57:02.099Z,10.63
2023-12-03T12:59:59.817Z,10.20
2023-12-03T13:11:07.361Z,8.90
2023-12-03T13:14:12.362Z,9.30
2023-12-03T13:17:04.305Z,8.90
2023-12-03T13:19:56.323Z,9.70
2023-12-03T13:26:04.441Z,9.20
2023-12-03T13:28:37.910Z,9.53
2023-12-03T13:31:13.941Z,9.53
2023-12-03T13:34:08.297Z,9.07
2023-12-03T13:36:46.480Z,9.20
2023-12-03T13:39:24.766Z,8.43
2023-12-03T13:42:18.801Z,8.40
2023-12-03T13:44:55.294Z,9.43
2023-12-03T13:47:34.488Z,8.60
2023-12-03T13:54:11.986Z,8.43
2023-12-03T13:56:48.271Z,8.47
2023-12-03T13:59:27.756Z,10.47
2023-12-03T14:02:32.456Z,12.00
2023-12-03T14:05:25.346Z,11.40
2023-12-03T14:08:18.388Z,11.53
2023-12-03T14:11:08.959Z,10.90
2023-12-03T14:16:40.948Z,10.87
2023-12-03T14:19:18.199Z,10.93
2023-12-03T14:22:03.246Z,11.73
2023-12-03T14:32:01.036Z,10.13
2023-12-03T14:54:25.088Z,10.10
2023-12-03T14:56:52.169Z,8.63
2023-12-03T14:59:59.573Z,13.13
2023-12-03T15:27:16.180Z,19.90
2023-12-03T15:30:26.909Z,14.07
2023-12-03T15:33:54.329Z,10.03
2023-12-03T15:36:30.537Z,9.40
2023-12-03T15:41:59.061Z,10.83
2023-12-03T15:44:31.826Z,12.10
2023-12-03T15:50:15.130Z,11.13
2023-12-03T15:52:51.171Z,12.40
2023-12-03T15:55:39.730Z,16.30
2023-12-03T15:58:06.924Z,19.13
2023-12-03T16:00:38.858Z,15.17
2023-12-03T16:03:06.241Z,12.57
2023-12-03T16:05:33.521Z,10.87
2023-12-03T16:08:01.426Z,11.40
2023-12-03T16:10:29.146Z,11.47
2023-12-03T16:13:00.567Z,11.67
2023-12-03T16:15:27.881Z,12.53
2023-12-03T16:27:11.179Z,13.00
2023-12-03T16:29:38.396Z,13.03
2023-12-03T16:32:09.788Z,11.57
2023-12-03T16:34:37.104Z,13.00
2023-12-03T16:37:04.788Z,12.43
2023-12-03T16:39:32.173Z,13.23
2023-12-03T16:41:59.410Z,14.53
2023-12-03T16:44:26.264Z,11.90
2023-12-03T16:47:02.271Z,13.07
2023-12-03T16:49:43.711Z,10.80
2023-12-03T16:52:12.058Z,9.53
2023-12-03T16:54:45.285Z,8.80
2023-12-03T16:57:25.263Z,8.13
2023-12-03T16:59:52.589Z,8.53
2023-12-03T17:02:28.436Z,8.23
2023-12-03T17:04:55.500Z,8.50
2023-12-03T17:13:00.903Z,9.00
2023-12-03T17:15:33.806Z,8.67
2023-12-03T17:18:01.693Z,10.87
2023-12-03T17:20:30.857Z,11.27
2023-12-03T17:22:58.038Z,11.27
2023-12-03T17:28:07.049Z,12.23
2023-12-03T17:30:34.756Z,10.53
2023-12-03T17:33:01.787Z,9.80
2023-12-03T17:35:53.318Z,8.80
2023-12-03T17:38:22.852Z,8.97
2023-12-03T17:40:50.200Z,8.97
2023-12-03T17:43:17.345Z,9.60
2023-12-03T17:45:47.952Z,11.00
2023-12-03T17:48:14.921Z,10.17
2023-12-03T17:50:41.773Z,11.13
2023-12-03T17:53:08.904Z,9.77
2023-12-03T17:55:36.154Z,10.00
2023-12-03T17:58:03.998Z,10.13
2023-12-03T18:00:37.269Z,9.43
2023-12-03T18:03:05.835Z,10.80
2023-12-03T18:05:34.655Z,10.20
2023-12-03T18:08:01.929Z,8.73
2023-12-03T18:10:29.040Z,8.53
2023-12-03T18:13:00.282Z,8.03
2023-12-03T18:15:27.575Z,8.70
2023-12-03T18:17:58.043Z,9.60
2023-12-03T18:20:26.516Z,8.77
2023-12-03T18:22:57.393Z,8.90
2023-12-03T18:25:24.538Z,8.50
2023-12-03T18:27:51.669Z,9.40
2023-12-03T18:30:21.085Z,8.70
2023-12-03T18:32:48.332Z,9.53
2023-12-03T18:35:15.376Z,8.40
2023-12-03T18:37:42.426Z,10.17
2023-12-03T18:40:10.604Z,9.27
2023-12-03T18:42:37.804Z,9.10
2023-12-03T18:45:05.305Z,8.87
2023-12-03T18:47:32.370Z,9.57
2023-12-03T18:50:06.336Z,8.20
2023-12-03T18:52:34.527Z,9.00
2023-12-03T18:55:05.490Z,9.57
2023-12-03T18:57:32.491Z,8.90
2023-12-03T19:00:02.156Z,9.10
2023-12-03T19:02:29.160Z,9.57
2023-12-03T19:05:05.916Z,9.57
2023-12-03T19:07:33.358Z,9.13
2023-12-03T19:10:01.036Z,8.70
2023-12-03T19:12:27.985Z,9.13
2023-12-03T19:14:54.870Z,10.57
2023-12-03T19:17:21.737Z,10.27
2023-12-03T19:19:48.679Z,9.10
2023-12-03T19:22:15.731Z,10.80
2023-12-03T19:24:43.111Z,10.93
2023-12-03T19:27:11.370Z,12.53
2023-12-03T19:29:38.396Z,14.43
2023-12-03T19:32:06.045Z,14.53
2023-12-03T19:34:33.342Z,17.20
2023-12-03T19:37:00.650Z,12.67
2023-12-03T19:39:30.287Z,10.67
2023-12-03T19:41:58.239Z,10.07
2023-12-03T19:44:25.526Z,9.37
2023-12-03T19:46:54.191Z,8.07
2023-12-03T19:49:21.209Z,8.77
2023-12-03T19:51:48.231Z,7.80
2023-12-03T19:54:15.060Z,7.43
2023-12-03T19:56:41.984Z,7.07
2023-12-03T19:59:08.762Z,6.80
2023-12-03T20:01:35.650Z,6.60
2023-12-03T20:04:02.620Z,7.07
2023-12-03T20:06:29.562Z,6.90
2023-12-03T20:08:56.897Z,7.17
2023-12-03T20:11:23.762Z,6.80
2023-12-03T20:13:50.621Z,6.43
2023-12-03T20:16:17.854Z,6.27
2023-12-03T20:18:45.094Z,6.60
2023-12-03T20:21:12.422Z,6.43
2023-12-03T20:23:39.901Z,6.87
2023-12-03T20:26:08.169Z,7.13
2023-12-03T20:28:36.465Z,7.20
2023-12-03T20:31:04.749Z,6.47
2023-12-03T20:33:32.472Z,6.97
2023-12-03T20:35:59.734Z,6.17
2023-12-03T20:38:26.660Z,5.97
2023-12-03T20:40:55.745Z,6.23
2023-12-03T20:43:24.012Z,6.10
2023-12-03T20:45:54.491Z,6.03
2023-12-03T20:48:21.718Z,6.27
2023-12-03T20:50:48.699Z,6.00
2023-12-03T20:53:16.383Z,6.40
2023-12-03T20:55:44.316Z,6.67
2023-12-03T20:58:11.162Z,9.00
2023-12-03T21:00:38.258Z,9.40
2023-12-03T21:03:05.365Z,9.33
2023-12-03T21:05:32.326Z,9.90
2023-12-03T21:07:59.234Z,9.13
2023-12-03T21:10:26.183Z,7.63
2023-12-03T21:12:53.048Z,7.70
2023-12-03T21:15:21.024Z,7.70
2023-12-03T21:17:48.450Z,7.37
2023-12-03T21:20:15.425Z,6.73
2023-12-03T21:22:42.375Z,6.70
2023-12-03T21:25:10.814Z,7.03
2023-12-03T21:27:39.311Z,7.10
2023-12-03T21:30:07.075Z,8.03
2023-12-03T21:32:35.872Z,7.53
2023-12-03T21:35:02.860Z,7.87
2023-12-03T21:37:29.767Z,8.90
2023-12-03T21:39:57.786Z,8.60
2023-12-03T21:42:25.117Z,8.77
2023-12-03T21:44:52.052Z,7.90
2023-12-03T21:47:18.948Z,7.87
2023-12-03T21:49:47.175Z,7.00
2023-12-03T21:52:15.122Z,7.07
2023-12-03T21:54:42.004Z,5.83
2023-12-03T21:57:08.952Z,5.60
2023-12-03T21:59:38.294Z,5.13
2023-12-03T22:02:05.126Z,5.03
2023-12-03T22:04:32.119Z,6.10
2023-12-03T22:06:59.010Z,5.70
2023-12-03T22:09:25.792Z,4.93
2023-12-03T22:11:52.886Z,5.17
2023-12-03T22:14:21.023Z,4.93
2023-12-03T22:16:47.885Z,5.53
2023-12-03T22:19:14.926Z,5.23
2023-12-03T22:21:42.158Z,6.57
2023-12-03T22:24:09.131Z,5.60
2023-12-03T22:26:36.013Z,5.13
2023-12-03T22:29:03.191Z,5.37
2023-12-03T22:31:30.309Z,5.60
2023-12-03T22:33:57.947Z,4.90
2023-12-03T22:36:25.081Z,5.63
2023-12-03T22:38:51.986Z,6.27
2023-12-03T22:41:21.779Z,6.47
2023-12-03T22:43:48.778Z,5.87
2023-12-03T22:46:15.639Z,5.63
2023-12-03T22:48:46.316Z,5.57
2023-12-03T22:51:13.668Z,5.57
2023-12-03T22:53:40.552Z,5.60
2023-12-03T22:56:09.428Z,5.10
2023-12-03T22:58:36.278Z,5.40
2023-12-03T23:01:03.626Z,4.93
2023-12-03T23:03:30.535Z,5.20
2023-12-03T23:05:57.802Z,4.87
2023-12-03T23:08:24.641Z,4.73
2023-12-03T23:10:52.033Z,4.67
2023-12-03T23:13:18.966Z,4.68
2023-12-03T23:15:45.968Z,5.00
2023-12-03T23:18:13.082Z,4.70
2023-12-03T23:20:39.897Z,4.53
2023-12-03T23:23:06.908Z,5.47
2023-12-03T23:25:33.983Z,4.90
2023-12-03T23:28:00.885Z,4.73
2023-12-03T23:30:27.820Z,4.50
2023-12-03T23:32:57.567Z,5.10
2023-12-03T23:35:24.436Z,4.40
2023-12-03T23:37:52.949Z,4.10
2023-12-03T23:40:19.734Z,3.97
2023-12-03T23:42:46.746Z,4.13
2023-12-03T23:45:13.612Z,3.63
2023-12-03T23:47:40.655Z,3.97
2023-12-03T23:50:08.179Z,3.80
2023-12-03T23:52:35.013Z,4.20
2023-12-03T23:55:02.017Z,4.13
2023-12-03T23:57:29.128Z,3.63
2023-12-03T23:59:56.020Z,3.53
